ADDS METAR Data INFO
IDs: Format: Raw Decoded Include TAF

Data at: 1541 UTC 25 Jun 2017

KWVI 251514Z AUTO 00000KT 10SM OVC005 14/14 A3000 RMK AO2 T01390139
KWVI 251453Z AUTO 00000KT 10SM OVC004 14/14 A3000 RMK AO2 SLP157 T01390139 53011
KWVI 251353Z AUTO 00000KT 10SM OVC003 13/13 A2999 RMK AO2 SLP153 T01330133
KWVI 251253Z AUTO 08004KT 10SM OVC004 13/13 A2997 RMK AO2 SLP149 T01330133
KWVI 251153Z AUTO 08006KT 10SM OVC004 13/13 A2996 RMK AO2 SLP146 T01330133 10139 20133 53003
KWVI 251053Z AUTO 09003KT 10SM OVC004 13/13 A2995 RMK AO2 SLP143 T01330133
KWVI 250953Z AUTO 06003KT 9SM OVC003 13/13 A2995 RMK AO2 SLP143 T01330133
KWVI 250853Z AUTO 11004KT 8SM OVC003 13/13 A2995 RMK AO2 SLP143 T01330133 53000
KWVI 250753Z AUTO 07003KT 9SM OVC003 14/14 A2995 RMK AO2 SLP142 T01390139 402170133
KWVI 250653Z AUTO 10004KT 10SM OVC004 14/14 A2995 RMK AO2 SLP142 T01390139
KWVI 250553Z AUTO 06003KT 10SM OVC003 14/14 A2995 RMK AO2 SLP143 T01390139 10183 20133 56000
KWVI 250453Z AUTO 12004KT 10SM OVC004 14/14 A2996 RMK AO2 SLP143 T01390139
KWVI 250353Z AUTO 10004KT 10SM OVC004 14/14 A2995 RMK AO2 SLP141 T01390139
KWVI 250335Z AUTO 13003KT 10SM OVC004 14/14 A2995 RMK AO2 T01390139
KWVI 250307Z AUTO 12004KT 10SM OVC005 14/14 A2995 RMK AO2 T01440144
KWVI 250253Z AUTO 15004KT 10SM OVC006 14/14 A2996 RMK AO2 SLP143 T01440144 55000
KWVI 250153Z AUTO 18005KT 10SM OVC007 16/14 A2995 RMK AO2 SLP140 T01560144
KWVI 250115Z AUTO 18006KT 10SM BKN007 16/14 A2995 RMK AO2 T01560144
KWVI 250053Z AUTO 17008KT 10SM FEW009 17/14 A2995 RMK AO2 SLP140 T01670144
KWVI 242353Z AUTO 17007KT 10SM CLR 17/14 A2996 RMK AO2 SLP144 T01720144 10217 20167 58000
KWVI 242311Z AUTO 23006KT 10SM SCT010 17/14 A2997 RMK AO2 T01670144
KWVI 242253Z AUTO 24007KT 10SM BKN009 17/14 A2997 RMK AO2 SLP149 T01720144
KWVI 242251Z AUTO 24007KT 10SM BKN009 17/14 A2997 RMK AO2
KWVI 242240Z AUTO 22007KT 10SM SCT009 18/14 A2997 RMK AO2 T01830144
KWVI 242153Z AUTO 22008KT 10SM CLR 19/15 A2996 RMK AO2 SLP144 T01940150
KWVI 242053Z AUTO VRB04KT 10SM CLR 20/15 A2994 RMK AO2 SLP137 T02000150 58013
KWVI 241953Z AUTO 22007KT 10SM CLR 21/15 A2996 RMK AO2 SLP145 T02060150
KWVI 241853Z AUTO VRB04KT 10SM CLR 19/14 A2998 RMK AO2 SLP150 T01940144
KWVI 241753Z AUTO VRB03KT 10SM FEW013 19/14 A2997 RMK AO2 SLP150 T01890144 10189 20133 58002
KWVI 241734Z AUTO VRB03KT 10SM FEW012 17/14 A2998 RMK AO2 T01720144
KWVI 241725Z AUTO VRB03KT 10SM BKN010 18/14 A2998 RMK AO2 T01780144
KWVI 241653Z AUTO 17004KT 10SM OVC008 17/14 A2998 RMK AO2 SLP152 T01670144
KWVI 241553Z AUTO 00000KT 10SM OVC007 15/14 A2998 RMK AO2 CIG 005V009 SLP151 T01500144
No TAF found for KWVI

KSNS 251453Z 25003KT 10SM OVC007 14/12 A2999 RMK AO2 SLP165 T01390122 53009
KSNS 251353Z AUTO 00000KT 9SM BKN005 OVC009 13/13 A2998 RMK AO2 CIG 004V009 SLP161 T01330128
KSNS 251253Z AUTO 23003KT 4SM BR OVC005 13/13 A2997 RMK AO2 SLP158 T01280128
KSNS 251153Z AUTO 27004KT 6SM BR OVC005 13/13 A2996 RMK AO2 SLP155 T01330128 10139 20133 53002
KSNS 251053Z AUTO 25005KT 9SM OVC006 13/13 A2996 RMK AO2 CIG 005V010 SLP154 T01330128
KSNS 251030Z AUTO 24007KT 7SM OVC005 13/13 A2996 RMK AO2 T01330128
KSNS 250953Z AUTO 26006KT 5SM BR OVC004 13/13 A2996 RMK AO2 SLP153 T01330133
KSNS 250853Z AUTO 28006KT 3SM BR OVC004 13/13 A2996 RMK AO2 SLP153 T01330133 55000
KSNS 250753Z AUTO 26009KT 4SM BR OVC003 14/13 A2995 RMK AO2 SLP152 T01390133 402110133
KSNS 250653Z AUTO 28009KT 5SM BR OVC003 13/13 A2995 RMK AO2 SLP152 T01330133
KSNS 250553Z AUTO 28007KT 4SM BR OVC003 14/13 A2996 RMK AO2 SLP154 T01390133 10183 20139 53003
KSNS 250453Z AUTO 30009KT 7SM OVC004 14/13 A2996 RMK AO2 SLP154 T01390133
KSNS 250353Z AUTO 30010KT 10SM OVC006 15/13 A2995 RMK AO2 SLP150 T01500133
KSNS 250253Z AUTO 29011KT 10SM OVC008 15/13 A2995 RMK AO2 CIG 005V009 SLP151 T01500133 53000
KSNS 250234Z AUTO 28011KT 10SM BKN009 16/13 A2995 RMK AO2 T01560133
KSNS 250227Z AUTO 28012KT 10SM BKN010 16/13 A2995 RMK AO2 T01610133
KSNS 250153Z AUTO 28010KT 10SM FEW010 17/13 A2995 RMK AO2 SLP149 T01670133
KSNS 250053Z 29010KT 10SM CLR 18/13 A2994 RMK AO2 SLP148 T01780133
KSNS 242353Z 30011KT 10SM SCT012 18/13 A2995 RMK AO2 SLP150 T01780133 10211 20178 50004
KSNS 242344Z 28013KT 10SM SCT013 18/13 A2995 RMK AO2 T01830133
KSNS 242253Z 28013KT 10SM BKN013 18/13 A2997 RMK AO2 SLP156 T01830133
KSNS 242153Z 30013KT 10SM CLR 18/13 A2995 RMK AO2 SLP151 T01830133
KSNS 242053Z 28015G20KT 10SM CLR 19/13 A2994 RMK AO2 SLP146 T01890133 58012
KSNS 241953Z 27014G20KT 10SM CLR 21/13 A2995 RMK AO2 SLP150 T02060133
KSNS 241853Z 30006KT 10SM CLR 21/13 A2997 RMK AO2 SLP156 T02060133
KSNS 241753Z 25007KT 10SM CLR 19/13 A2997 RMK AO2 SLP158 T01940133 10194 20139 56002
KSNS 241653Z 00000KT 10SM SCT014 17/13 A2997 RMK AO2 SLP158 T01720133
KSNS 241553Z 30003KT 10SM OVC011 16/13 A2997 RMK AO2 SLP159 T01610128

KSNS 251120Z 2512/2612 VRB03KT 6SM BR OVC006
  FM251700 29006KT P6SM SKC
  FM252000 28015KT P6SM SKC
  FM260300 29009G15KT P6SM OVC007
  FM260600 28004KT P6SM OVC005


KMRY 251535Z 29006KT 2SM BR OVC003 13/13 A3001 RMK AO2 T01330128
KMRY 251454Z 26004KT 3SM BR OVC003 13/13 A3000 RMK AO2 SLP170 T01330128 53009
KMRY 251436Z 00000KT 5SM BR OVC003 13/13 A3000 RMK AO2 T01280128
KMRY 251354Z 00000KT 5SM BR OVC005 12/12 A2999 RMK AO2 SLP167 T01220122
KMRY 251329Z 24004KT 7SM OVC005 13/12 A2998 RMK AO2 T01280122
KMRY 251254Z 21005KT 4SM BR OVC003 13/13 A2998 RMK AO2 SLP163 T01280128
KMRY 251154Z AUTO 26005KT 4SM BR OVC003 13/13 A2997 RMK AO2 SLP161 T01280128 10139 20128 53002
KMRY 251054Z AUTO 27005KT 3SM BR OVC002 13/13 A2996 RMK AO2 SLP159 T01280128
KMRY 250954Z AUTO 25005KT 3SM BR OVC003 13/13 A2997 RMK AO2 SLP158 T01330133
KMRY 250854Z AUTO 24006KT 4SM BR OVC002 13/13 A2997 RMK AO2 SLP159 T01330133 58001
KMRY 250828Z AUTO 26005KT 5SM BR OVC002 13/13 A2997 RMK AO2 T01330133
KMRY 250819Z AUTO 24006KT 2 1/2SM BR OVC002 13/13 A2997 RMK AO2 T01330133
KMRY 250805Z AUTO 26006KT 3SM BR OVC002 13/13 A2997 RMK AO2 T01330133
KMRY 250754Z AUTO 26007KT 3SM BR OVC001 13/13 A2997 RMK AO2 SLP160 T01330133 401940133
KMRY 250747Z AUTO 26005KT 3SM BR OVC001 13/13 A2997 RMK AO2 T01330133
KMRY 250702Z AUTO 24006KT 2 1/2SM BR OVC001 13/13 A2997 RMK AO2 VIS 1 3/4V4 T01330133
KMRY 250654Z AUTO 24005KT 3SM BR OVC001 13/13 A2997 RMK AO2 SLP160 T01330133
KMRY 250651Z AUTO 25007KT 4SM BR OVC001 13/13 A2997 RMK AO2
KMRY 250642Z AUTO 25007KT 2 1/2SM BR OVC001 13/13 A2997 RMK AO2 T01330128
KMRY 250620Z AUTO 26006KT 4SM BR OVC001 13/13 A2997 RMK AO2 T01330128
KMRY 250554Z AUTO 26006KT 3SM BR OVC002 13/13 A2997 RMK AO2 SLP161 T01330128 10178 20133 53003
KMRY 250454Z AUTO 26006KT 7SM OVC002 14/13 A2997 RMK AO2 SLP160 T01390128
KMRY 250436Z AUTO 28007KT 6SM BR OVC003 14/13 A2997 RMK AO2 T01390133
KMRY 250354Z 29005KT 10SM OVC005 14/13 A2996 RMK AO2 SLP158 T01440128
KMRY 250254Z 10SM OVC005 15/13 A2997 RMK AO2 SLP159 T01500133 53003
KMRY 250154Z 29005KT 10SM OVC005 15/13 A2996 RMK AO2 SLP157 T01500133
KMRY 250144Z 29007KT 10SM OVC005 16/13 A2996 RMK AO2 T01560133
KMRY 250102Z 31006KT 10SM SCT010 16/13 A2996 RMK AO2 T01610133
KMRY 250054Z 31007KT 10SM BKN008 17/13 A2996 RMK AO2 SLP156 T01670133
KMRY 250050Z 31006KT 10SM SCT008 BKN014 17/13 A2996 RMK AO2
KMRY 250038Z 31007KT 10SM BKN008 BKN014 17/13 A2996 RMK AO2 CIG 007V010 T01720133
KMRY 242354Z 28009KT 10SM BKN011 18/13 A2996 RMK AO2 SLP158 T01780133 10194 20156 50005
KMRY 242337Z 30010KT 10SM BKN012 17/13 A2997 RMK AO2 T01720133
KMRY 242254Z 28008KT 10SM FEW015 18/13 A2998 RMK AO2 SLP163 T01830133
KMRY 242154Z 26011KT 10SM FEW007 19/14 A2996 RMK AO2 SLP157 T01940139
KMRY 242054Z 31009KT 10SM FEW007 16/13 A2995 RMK AO2 SLP152 T01610133 58013
KMRY 242039Z 26006KT 10SM FEW007 17/13 A2998 RMK AO2 T01670128
KMRY 241954Z 31008KT 10SM CLR 17/13 A2998 RMK AO2 SLP162 T01670128
KMRY 241854Z 28007KT 10SM CLR 18/13 A2999 RMK AO2 SLP167 T01780128
KMRY 241754Z 31005KT 10SM CLR 17/13 A2998 RMK AO2 SLP165 T01720128 10172 20139 50000
KMRY 241654Z 28004KT 10SM FEW010 16/13 A2999 RMK AO2 SLP167 T01560128
KMRY 241611Z VRB03KT 10SM FEW011 17/13 A2998 RMK AO2 T01670133
KMRY 241554Z 00000KT 10SM BR SCT005 BKN013 16/13 A2998 RMK AO2 SLP164 T01560133
KMRY 241550Z 00000KT 10SM BR SCT005 BKN013 16/13 A2998 RMK AO2

KMRY 251120Z 2512/2612 26004KT 3SM BR OVC002
  FM251500 27004KT P6SM OVC007
  FM251700 28004KT P6SM FEW010
  FM251900 29009KT P6SM SKC
  FM260200 27008KT P6SM OVC005
  FM260400 24006KT 4SM BR OVC002


KSJC 251453Z 33004KT 10SM FEW008 BKN013 OVC016 17/13 A2999 RMK AO2 SLP154 T01670133 53010
KSJC 251353Z 33004KT 10SM FEW008 BKN011 OVC016 16/14 A2997 RMK AO2 SLP149 T01610139
KSJC 251253Z 35004KT 10SM FEW008 BKN011 OVC016 16/14 A2997 RMK AO2 SLP146 T01610139
KSJC 251232Z 33003KT 10SM FEW008 BKN011 OVC016 16/14 A2996 RMK AO2 T01610139
KSJC 251153Z AUTO 32004KT 10SM OVC010 16/14 A2996 RMK AO2 SLP144 T01610139 10167 20161 53008
KSJC 251053Z AUTO 28004KT 10SM OVC010 16/14 A2995 RMK AO2 SLP141 T01610139
KSJC 250953Z AUTO 36005KT 10SM OVC010 17/14 A2994 RMK AO2 SLP138 T01670144
KSJC 250853Z AUTO 33004KT 10SM OVC011 17/14 A2993 RMK AO2 SLP136 T01670144 58005
KSJC 250753Z AUTO 32003KT 10SM OVC011 17/14 A2994 RMK AO2 SLP138 T01670139 402560161
KSJC 250653Z 31008KT 10SM FEW006 BKN011 BKN140 17/14 A2995 RMK AO2 SLP140 LAST T01670144
KSJC 250553Z 31007KT 10SM BKN012 BKN140 17/14 A2995 RMK AO2 SLP141 T01670144 10228 20167 51009
KSJC 250453Z 30009KT 10SM FEW011 SCT028 SCT140 17/15 A2994 RMK AO2 SLP138 T01720150
KSJC 250353Z 28009KT 10SM FEW009 SCT150 SCT200 18/15 A2993 RMK AO2 SLP136 T01830150
KSJC 250253Z 29008KT 10SM FEW008 SCT130 BKN210 19/14 A2992 RMK AO2 SLP132 T01940144 53002
KSJC 250153Z 30010KT 10SM FEW007 SCT160 BKN210 21/15 A2992 RMK AO2 SLP130 T02110150
KSJC 250053Z 29009KT 10SM FEW080 SCT120 BKN200 22/16 A2991 RMK AO2 SLP129 T02220156
KSJC 242353Z 29008KT 10SM SCT100 BKN180 23/15 A2992 RMK AO2 SLP130 T02280150 10256 20206 55004
KSJC 242253Z 28012KT 10SM SCT100 BKN180 24/16 A2991 RMK AO2 SLP127 T02390156
KSJC 242153Z 30011KT 10SM SCT100 BKN180 25/16 A2992 RMK AO2 SLP130 T02500161
KSJC 242053Z 29009KT 10SM SCT100 BKN180 25/16 A2993 RMK AO2 SLP134 T02500161 58010
KSJC 241953Z 30006KT 10SM SCT100 BKN180 24/14 A2994 RMK AO2 SLP136 T02390144
KSJC 241853Z VRB03KT 10SM FEW020 SCT100 BKN180 22/15 A2996 RMK AO2 SLP143 T02220150
KSJC 241753Z VRB03KT 10SM FEW002 SCT020 SCT045 21/15 A2996 RMK AO2 SLP144 T02060150 10206 20167 58001
KSJC 241729Z 00000KT 9SM FEW002 SCT016 BKN030 20/15 A2997 RMK AO2 T02000150
KSJC 241653Z 30005KT 10SM FEW001 BKN014 OVC020 19/15 A2997 RMK AO2 SLP147 T01890150
KSJC 241632Z 25003KT 10SM FEW001 BKN014 OVC020 18/15 A2997 RMK AO2 T01830150
KSJC 241553Z 32003KT 10SM FEW006 BKN015 OVC020 18/15 A2997 RMK AO2 SLP149 T01830150

KSJC 251120Z 2512/2612 28004KT P6SM OVC010
  FM251700 30004KT P6SM SCT012
  FM252000 30010KT P6SM SKC
  FM260800 31007KT P6SM OVC010


KSFO 251456Z 25007KT 10SM SCT008 BKN010 OVC013 14/12 A3000 RMK AO2 SLP157 T01440117 52010 $
KSFO 251356Z 27009KT 10SM SCT008 BKN010 OVC014 14/12 A2998 RMK AO2 SLP153 T01440117
KSFO 251317Z 28007KT 9SM SCT008 BKN010 OVC014 14/12 A2998 RMK AO2 T01390117
KSFO 251256Z 28010KT 10SM OVC008 14/12 A2998 RMK AO2 SLP150 T01390117
KSFO 251156Z 24005KT 10SM FEW006 BKN008 OVC013 14/12 A2996 RMK AO2 SLP146 T01390117 10156 20139 53009
KSFO 251056Z 27009KT 10SM OVC007 14/12 A2995 RMK AO2 SLP142 T01390117
KSFO 250956Z 27008KT 10SM OVC008 14/12 A2995 RMK AO2 SLP140 T01440117
KSFO 250856Z 27012KT 10SM OVC008 14/12 A2994 RMK AO2 SLP138 T01440122 58003
KSFO 250756Z 28014KT 10SM OVC006 14/12 A2994 RMK AO2 SLP139 T01440122 402060139
KSFO 250656Z 27015KT 10SM OVC005 14/12 A2995 RMK AO2 SLP142 T01440122
KSFO 250635Z 27015KT 10SM OVC006 14/12 A2995 RMK AO2 T01440122
KSFO 250610Z 28017KT 10SM OVC004 14/12 A2995 RMK AO2 T01440122
KSFO 250556Z COR 270165KT 10SM FEW003 OVC005 14/12 A2995 RMK AO2 SLP141 T01440122 10183 20144 50002
KSFO 250456Z 28017KT 10SM FEW003 BKN006 14/12 A2995 RMK AO2 SLP142 T01440122
KSFO 250356Z 28019KT 10SM FEW003 SCT006 BKN150 14/12 A2994 RMK AO2 SLP139 T01440122
KSFO 250256Z 28017KT 10SM FEW003 SCT007 BKN150 BKN200 15/12 A2994 RMK AO2 PK WND 27027/0234 SLP139 T01500122 53004
KSFO 250156Z 28021KT 10SM FEW003 SCT150 BKN200 16/12 A2992 RMK AO2 PK WND 29030/0105 SLP131 T01610117
KSFO 250056Z 29022KT 10SM FEW004 SCT150 BKN200 17/12 A2993 RMK AO2 SLP134 T01720122
KSFO 242356Z 29019KT 10SM FEW004 SCT150 BKN200 18/12 A2993 RMK AO2 PK WND 28026/2335 SLP135 T01830117 10206 20172 55004
KSFO 242256Z 29020KT 10SM FEW004 SCT180 BKN200 19/12 A2992 RMK AO2 PK WND 29028/2250 SLP133 T01940117
KSFO 242156Z 30020G24KT 10SM FEW006 SCT180 BKN200 20/12 A2994 RMK AO2 SLP138 T02000122
KSFO 242056Z 30020KT 10SM FEW007 SCT180 BKN200 19/12 A2994 RMK AO2 SLP139 T01940122 58006
KSFO 241956Z 30015KT 10SM FEW009 BKN200 19/12 A2995 RMK AO2 SLP142 T01940122
KSFO 241856Z 30015KT 10SM FEW008 SCT200 19/12 A2995 RMK AO2 SLP143 T01940122
KSFO 241756Z 31015KT 10SM FEW009 SCT200 19/13 A2996 RMK AO2 SLP145 T01890128 10189 20139 55003
KSFO 241656Z 31011KT 10SM FEW008 SCT200 19/12 A2996 RMK AO2 SLP144 T01890122
KSFO 241556Z 31010KT 10SM FEW007 SCT200 18/12 A2997 RMK AO2 SLP149 T01780122

KSFO 251504Z 2515/2618 25007KT P6SM SCT008 BKN010 OVC013
  FM251700 29011KT P6SM SCT010
  FM252000 28018KT P6SM FEW012
  FM260300 28013KT P6SM FEW012
  FM260500 27011KT P6SM BKN007
  FM260800 27010KT P6SM OVC006


No METAR found for KHAF
No TAF found for KHAF


Page loaded:  15:41 UTC  |   08:41 AM Pacific  |   09:41 AM Mountain  |   10:41 AM Central  |   11:41 AM Eastern

 

ADVISORIES

FORECASTS

FORECASTS

OBSERVATIONS

USER TOOLS

ABOUT US